Time;durP1;ratioP1;P1;durP2;ratioP2;P2;SDS_P1;SDS_P2;PMS_P1;PMS_P2;Temp;Humidity;BMP_temperature;BMP_pressure;BME280_temperature;BME280_humidity;BME280_pressure;Samples;Min_cycle;Max_cycle;Signal;HPM_P1;HPM_P2
2022/07/13 00:00:00;;;;;;;;;;;17.90;99.90;;;;;;5088804;28;19995;-71
2022/07/13 00:02:26;;;;;;;;;;;17.80;99.90;;;;;;5083297;28;20164;-71
2022/07/13 00:04:54;;;;;;;;;;;17.70;99.90;;;;;;5082940;28;19979;-71
2022/07/13 00:07:22;;;;;;;;;;;17.70;99.90;;;;;;5083292;28;19963;-71
2022/07/13 00:09:48;;;;;;;;;;;17.60;99.90;;;;;;5085153;28;20258;-71
2022/07/13 00:12:15;;;;;;;;;;;17.60;99.90;;;;;;5082502;28;19924;-71
2022/07/13 00:14:42;;;;;;;;;;;17.60;99.90;;;;;;5083343;28;20300;-71
2022/07/13 00:17:09;;;;;;;;;;;17.60;99.90;;;;;;5083597;28;19921;-71
2022/07/13 00:19:35;;;;;;;;;;;17.60;99.90;;;;;;5089209;28;20134;-71
2022/07/13 00:22:02;;;;;;;;;;;17.60;99.90;;;;;;5082804;28;20116;-72
2022/07/13 00:24:30;;;;;;;;;;;17.50;99.90;;;;;;5083363;28;20207;-71
2022/07/13 00:26:57;;;;;;;;;;;17.50;99.90;;;;;;5082511;28;20168;-70
2022/07/13 00:29:23;;;;;;;;;;;17.50;99.90;;;;;;5084983;28;19936;-72
2022/07/13 00:31:50;;;;;;;;;;;17.50;99.90;;;;;;5082485;28;20093;-71
2022/07/13 00:34:16;;;;;;;;;;;17.50;99.90;;;;;;5082371;28;20278;-71
2022/07/13 00:36:43;;;;;;;;;;;17.40;99.90;;;;;;5082431;28;19972;-71
2022/07/13 00:39:10;;;;;;;;;;;17.30;99.90;;;;;;5086126;28;19952;-70
2022/07/13 00:41:44;;;;;;;;;;;17.30;99.90;;;;;;5082375;28;19944;-70
2022/07/13 00:44:11;;;;;;;;;;;17.20;99.90;;;;;;5073278;28;19992;-70
2022/07/13 00:46:38;;;;;;;;;;;17.10;99.90;;;;;;5082382;28;19920;-71
2022/07/13 00:49:05;;;;;;;;;;;17.10;99.90;;;;;;5077934;28;20015;-71
2022/07/13 00:51:31;;;;;;;;;;;17.10;99.90;;;;;;5082117;28;20173;-71
2022/07/13 00:53:59;;;;;;;;;;;17.00;99.90;;;;;;5082463;28;20267;-71
2022/07/13 00:56:25;;;;;;;;;;;17.00;99.90;;;;;;5082236;28;19921;-72
2022/07/13 00:58:53;;;;;;;;;;;17.00;99.90;;;;;;5083195;28;19928;-71
2022/07/13 01:01:20;;;;;;;;;;;16.90;99.90;;;;;;5081925;28;19983;-71
2022/07/13 01:03:46;;;;;;;;;;;16.90;99.90;;;;;;5082220;28;19920;-71
2022/07/13 01:06:13;;;;;;;;;;;16.80;99.90;;;;;;5078936;28;19922;-71
2022/07/13 01:08:40;;;;;;;;;;;16.80;99.90;;;;;;5082798;28;19991;-71
2022/07/13 01:11:07;;;;;;;;;;;16.80;99.90;;;;;;5082445;28;19940;-71
2022/07/13 01:13:34;;;;;;;;;;;16.80;99.90;;;;;;5079282;28;20286;-71
2022/07/13 01:16:03;;;;;;;;;;;16.70;99.90;;;;;;5081992;28;19920;-71
2022/07/13 01:18:30;;;;;;;;;;;16.70;99.90;;;;;;5087883;28;19990;-70
2022/07/13 01:20:57;;;;;;;;;;;16.70;99.90;;;;;;5087132;28;19943;-71
2022/07/13 01:23:26;;;;;;;;;;;16.60;99.90;;;;;;5078205;28;19959;-71
2022/07/13 01:25:56;;;;;;;;;;;16.60;99.90;;;;;;5081289;28;20207;-71
2022/07/13 01:28:23;;;;;;;;;;;16.60;99.90;;;;;;5082542;28;19924;-71
2022/07/13 01:30:49;;;;;;;;;;;16.50;99.90;;;;;;5091514;28;19921;-71
2022/07/13 01:33:16;;;;;;;;;;;16.50;99.90;;;;;;5078625;28;19920;-71
2022/07/13 01:35:43;;;;;;;;;;;16.50;99.90;;;;;;5081055;28;19983;-71
2022/07/13 01:38:10;;;;;;;;;;;16.40;99.90;;;;;;5082269;28;19959;-71
2022/07/13 01:40:39;;;;;;;;;;;16.30;99.90;;;;;;5089404;28;19921;-71
2022/07/13 01:43:06;;;;;;;;;;;16.30;99.90;;;;;;5081756;28;19987;-70
2022/07/13 01:45:32;;;;;;;;;;;16.30;99.90;;;;;;5081393;28;19996;-71
2022/07/13 01:47:59;;;;;;;;;;;16.20;99.90;;;;;;5082548;28;20156;-71
2022/07/13 01:50:27;;;;;;;;;;;16.20;99.90;;;;;;5084459;28;20097;-71
2022/07/13 01:52:54;;;;;;;;;;;16.20;99.90;;;;;;5080734;28;20333;-71
2022/07/13 01:55:20;;;;;;;;;;;16.20;99.90;;;;;;5081504;28;20019;-70
2022/07/13 01:57:49;;;;;;;;;;;16.20;99.90;;;;;;5081101;28;19955;-71
2022/07/13 02:00:19;;;;;;;;;;;16.10;99.90;;;;;;5079371;28;20271;-71
2022/07/13 02:02:46;;;;;;;;;;;16.10;99.90;;;;;;5080535;28;19952;-71
2022/07/13 02:05:13;;;;;;;;;;;16.10;99.90;;;;;;5081479;28;19927;-71
2022/07/13 02:07:39;;;;;;;;;;;16.00;99.90;;;;;;5080670;28;19963;-68
2022/07/13 02:10:07;;;;;;;;;;;15.90;99.90;;;;;;5080087;28;20193;-71
2022/07/13 02:12:34;;;;;;;;;;;15.80;99.90;;;;;;5074639;28;19920;-71
2022/07/13 02:15:02;;;;;;;;;;;15.80;99.90;;;;;;5082568;28;19935;-71
2022/07/13 02:17:28;;;;;;;;;;;15.70;99.90;;;;;;5074045;28;19956;-71
2022/07/13 02:19:56;;;;;;;;;;;15.70;99.90;;;;;;5082498;28;19951;-71
2022/07/13 02:22:22;;;;;;;;;;;15.60;99.90;;;;;;5080383;28;20135;-69
2022/07/13 02:24:49;;;;;;;;;;;15.60;99.90;;;;;;5082291;28;19976;-71
2022/07/13 02:27:16;;;;;;;;;;;15.50;99.90;;;;;;5091996;28;19928;-71
2022/07/13 02:32:50;;;;;;;;;;;15.50;99.90;;;;;;5072492;28;19916;-69
2022/07/13 02:35:18;;;;;;;;;;;15.60;99.90;;;;;;5080214;28;19990;-71
2022/07/13 02:37:45;;;;;;;;;;;15.60;99.90;;;;;;5091045;28;19920;-71
2022/07/13 02:40:12;;;;;;;;;;;15.50;99.90;;;;;;5082082;28;20238;-70
2022/07/13 02:42:39;;;;;;;;;;;15.50;99.90;;;;;;5081169;28;19920;-71
2022/07/13 02:45:07;;;;;;;;;;;15.50;99.90;;;;;;5082397;28;19928;-69
2022/07/13 02:47:34;;;;;;;;;;;15.50;99.90;;;;;;5092198;28;19948;-71
2022/07/13 02:50:02;;;;;;;;;;;15.50;99.90;;;;;;5082442;28;19927;-71
2022/07/13 02:52:28;;;;;;;;;;;15.40;99.90;;;;;;5080865;28;19974;-71
2022/07/13 02:54:55;;;;;;;;;;;15.40;99.90;;;;;;5082096;28;19967;-71
2022/07/13 02:57:22;;;;;;;;;;;15.40;99.90;;;;;;5081225;28;20267;-71
2022/07/13 02:59:48;;;;;;;;;;;15.40;99.90;;;;;;5082119;28;20231;-71
2022/07/13 03:02:16;;;;;;;;;;;15.40;99.90;;;;;;5076167;28;20269;-71
2022/07/13 03:04:43;;;;;;;;;;;15.40;99.90;;;;;;5081159;28;19925;-71
2022/07/13 03:07:11;;;;;;;;;;;15.40;99.90;;;;;;5083570;28;19921;-71
2022/07/13 03:09:38;;;;;;;;;;;15.40;99.90;;;;;;5082154;28;19952;-71
2022/07/13 03:12:04;;;;;;;;;;;15.40;99.90;;;;;;5080930;28;20200;-71
2022/07/13 03:14:31;;;;;;;;;;;15.40;99.90;;;;;;5085287;28;19943;-71
2022/07/13 03:16:58;;;;;;;;;;;15.40;99.90;;;;;;5085438;28;19951;-71
2022/07/13 03:19:24;;;;;;;;;;;15.40;99.90;;;;;;5085924;28;19975;-71
2022/07/13 03:21:51;;;;;;;;;;;15.40;99.90;;;;;;5085420;28;19920;-70
2022/07/13 03:24:19;;;;;;;;;;;15.40;99.90;;;;;;5085141;28;19920;-71
2022/07/13 03:26:46;;;;;;;;;;;15.30;99.90;;;;;;5085220;28;19920;-71
2022/07/13 03:29:12;;;;;;;;;;;15.30;99.90;;;;;;5075581;28;19948;-71
2022/07/13 03:31:39;;;;;;;;;;;15.20;99.90;;;;;;5077583;28;19992;-71
2022/07/13 03:34:06;;;;;;;;;;;15.20;99.90;;;;;;5064748;28;19976;-71
2022/07/13 03:36:32;;;;;;;;;;;15.20;99.90;;;;;;5084688;28;19921;-71
2022/07/13 03:38:59;;;;;;;;;;;15.10;99.90;;;;;;5085213;28;19921;-71
2022/07/13 03:41:27;;;;;;;;;;;15.20;99.90;;;;;;5085536;28;19920;-70
2022/07/13 03:43:54;;;;;;;;;;;15.10;99.90;;;;;;5081631;28;19952;-71
2022/07/13 03:46:21;;;;;;;;;;;15.10;99.90;;;;;;5085445;28;19921;-71
2022/07/13 03:48:47;;;;;;;;;;;15.20;99.90;;;;;;5085238;28;19955;-71
2022/07/13 03:51:14;;;;;;;;;;;15.10;99.90;;;;;;5085415;28;19958;-70
2022/07/13 03:53:41;;;;;;;;;;;15.00;99.90;;;;;;5084526;28;19932;-71
2022/07/13 03:56:07;;;;;;;;;;;15.00;99.90;;;;;;5084957;28;19958;-71
2022/07/13 03:58:35;;;;;;;;;;;15.00;99.90;;;;;;5085399;28;19920;-71
2022/07/13 04:01:02;;;;;;;;;;;15.00;99.90;;;;;;5084994;28;19932;-69
2022/07/13 04:03:29;;;;;;;;;;;15.00;99.90;;;;;;5084673;28;20097;-71
2022/07/13 04:05:55;;;;;;;;;;;15.00;99.90;;;;;;5084557;28;19952;-71
2022/07/13 04:08:22;;;;;;;;;;;15.00;99.90;;;;;;5070368;28;19928;-71
2022/07/13 04:10:49;;;;;;;;;;;15.00;99.90;;;;;;5071000;28;19952;-71
2022/07/13 04:13:15;;;;;;;;;;;15.00;99.90;;;;;;5084138;28;19927;-71
2022/07/13 04:15:43;;;;;;;;;;;14.90;99.90;;;;;;5084602;28;19991;-71
2022/07/13 04:18:10;;;;;;;;;;;14.90;99.90;;;;;;5084696;28;20174;-71
2022/07/13 04:20:36;;;;;;;;;;;14.90;99.90;;;;;;5075998;28;20199;-70
2022/07/13 04:23:03;;;;;;;;;;;14.90;99.90;;;;;;5083553;28;19920;-71
2022/07/13 04:25:30;;;;;;;;;;;14.90;99.90;;;;;;5084446;28;20159;-71
2022/07/13 04:27:56;;;;;;;;;;;14.90;99.90;;;;;;5084496;28;19924;-71
2022/07/13 04:30:23;;;;;;;;;;;14.90;99.90;;;;;;5084984;28;20112;-71
2022/07/13 04:32:51;;;;;;;;;;;15.00;99.90;;;;;;5080841;28;19920;-71
2022/07/13 04:35:18;;;;;;;;;;;15.00;99.90;;;;;;5083916;28;19929;-71
2022/07/13 04:37:44;;;;;;;;;;;15.10;99.90;;;;;;5084333;28;19954;-71
2022/07/13 04:40:12;;;;;;;;;;;15.20;99.90;;;;;;5084695;28;19992;-71
2022/07/13 04:42:38;;;;;;;;;;;15.20;99.90;;;;;;5083461;28;19920;-71
2022/07/13 04:45:06;;;;;;;;;;;15.20;99.90;;;;;;5083632;28;20121;-70
2022/07/13 04:47:32;;;;;;;;;;;15.30;99.90;;;;;;5084285;28;19979;-71
2022/07/13 04:50:00;;;;;;;;;;;15.40;99.90;;;;;;5083669;28;19920;-70
2022/07/13 04:52:27;;;;;;;;;;;15.40;99.90;;;;;;5082865;28;19956;-69
2022/07/13 04:54:54;;;;;;;;;;;15.50;99.90;;;;;;5097401;28;19920;-69
2022/07/13 04:57:20;;;;;;;;;;;15.70;99.90;;;;;;5104455;28;20210;-70
2022/07/13 04:59:47;;;;;;;;;;;15.80;99.90;;;;;;5104591;28;19943;-70
2022/07/13 05:02:14;;;;;;;;;;;15.90;99.90;;;;;;5096394;28;19956;-69
2022/07/13 05:04:40;;;;;;;;;;;16.00;99.90;;;;;;5077262;28;19920;-69
2022/07/13 05:07:08;;;;;;;;;;;16.10;99.90;;;;;;5083691;28;20173;-70
2022/07/13 05:09:35;;;;;;;;;;;16.20;99.90;;;;;;5084015;28;19920;-69
2022/07/13 05:12:02;;;;;;;;;;;16.40;99.90;;;;;;5081487;28;19952;-71
2022/07/13 05:14:28;;;;;;;;;;;16.50;99.90;;;;;;5082838;28;19928;-70
2022/07/13 05:16:55;;;;;;;;;;;16.50;99.90;;;;;;5083951;28;20144;-71
2022/07/13 05:19:22;;;;;;;;;;;16.60;99.90;;;;;;5120390;22;19946;-92
2022/07/13 05:21:49;;;;;;;;;;;16.60;99.90;;;;;;5117406;28;19931;-93
2022/07/13 05:24:17;;;;;;;;;;;16.60;99.90;;;;;;5130117;28;20258;-94
2022/07/13 05:26:47;;;;;;;;;;;16.60;99.90;;;;;;5135410;28;19920;-94
2022/07/13 05:29:14;;;;;;;;;;;16.70;99.90;;;;;;5135286;28;19985;-93
2022/07/13 05:31:41;;;;;;;;;;;16.70;99.90;;;;;;5133283;27;19934;-93
2022/07/13 05:34:07;;;;;;;;;;;16.80;99.90;;;;;;5137753;22;19919;-69
2022/07/13 05:36:34;;;;;;;;;;;16.90;99.90;;;;;;5121766;28;19947;-68
2022/07/13 05:39:01;;;;;;;;;;;17.00;99.90;;;;;;5104078;28;19920;-67
2022/07/13 05:41:29;;;;;;;;;;;17.10;99.90;;;;;;5083856;28;19956;-67
2022/07/13 05:43:55;;;;;;;;;;;17.20;99.90;;;;;;5083475;28;19988;-67
2022/07/13 05:46:22;;;;;;;;;;;17.30;99.90;;;;;;5095671;28;19983;-67
2022/07/13 05:48:49;;;;;;;;;;;17.40;99.90;;;;;;5103801;28;19955;-68
2022/07/13 05:51:15;;;;;;;;;;;17.40;99.90;;;;;;5103825;28;19963;-68
2022/07/13 05:53:42;;;;;;;;;;;17.50;99.90;;;;;;5103579;28;19999;-68
2022/07/13 05:56:13;;;;;;;;;;;17.70;99.90;;;;;;5103198;28;20187;-67
2022/07/13 05:58:41;;;;;;;;;;;17.80;99.90;;;;;;5104010;28;19979;-68
2022/07/13 06:01:08;;;;;;;;;;;18.00;99.90;;;;;;5103433;28;19924;-67
2022/07/13 06:03:35;;;;;;;;;;;18.20;99.90;;;;;;5102704;28;19951;-68
2022/07/13 06:06:01;;;;;;;;;;;18.40;99.90;;;;;;5098706;28;19962;-68
2022/07/13 06:08:28;;;;;;;;;;;18.50;99.90;;;;;;5103666;28;19962;-67
2022/07/13 06:10:55;;;;;;;;;;;18.60;99.90;;;;;;5103691;28;19921;-68
2022/07/13 06:13:21;;;;;;;;;;;18.70;99.90;;;;;;5103467;28;19920;-67
2022/07/13 06:15:50;;;;;;;;;;;18.90;99.90;;;;;;5097208;28;19991;-67
2022/07/13 06:18:16;;;;;;;;;;;18.90;99.90;;;;;;5101483;28;19983;-67
2022/07/13 06:20:43;;;;;;;;;;;18.90;99.90;;;;;;5090214;28;19981;-68
2022/07/13 06:23:10;;;;;;;;;;;19.00;99.90;;;;;;5082894;28;20067;-68
2022/07/13 06:26:08;;;;;;;;;;;19.00;99.90;;;;;;5087794;28;19951;-68
2022/07/13 06:28:35;;;;;;;;;;;19.10;99.90;;;;;;5102802;28;20006;-68
2022/07/13 06:31:06;;;;;;;;;;;19.20;99.90;;;;;;5102837;28;19963;-68
2022/07/13 06:39:29;;;;;;;;;;;19.60;99.90;;;;;;5038872;28;19924;-68
2022/07/13 06:41:56;;;;;;;;;;;19.90;99.90;;;;;;5071187;28;19920;-68
2022/07/13 06:44:23;;;;;;;;;;;20.10;99.90;;;;;;5102718;28;20212;-68
2022/07/13 06:46:51;;;;;;;;;;;20.20;99.90;;;;;;5096243;28;19927;-68
2022/07/13 06:49:17;;;;;;;;;;;20.40;99.90;;;;;;5097271;28;19958;-68
2022/07/13 06:51:44;;;;;;;;;;;20.60;99.90;;;;;;5089107;28;20235;-68
2022/07/13 06:54:10;;;;;;;;;;;20.80;99.90;;;;;;5086495;28;19927;-70
2022/07/13 06:56:37;;;;;;;;;;;21.00;99.90;;;;;;5098466;28;19967;-68
2022/07/13 06:59:04;;;;;;;;;;;21.10;99.90;;;;;;5105055;28;19951;-68
2022/07/13 07:01:31;;;;;;;;;;;21.30;99.90;;;;;;5089316;28;19921;-67
2022/07/13 07:04:06;;;;;;;;;;;21.40;99.90;;;;;;5094402;28;19920;-68
2022/07/13 07:06:33;;;;;;;;;;;21.50;99.90;;;;;;5105006;28;20016;-68
2022/07/13 07:09:00;;;;;;;;;;;21.60;99.90;;;;;;5088346;28;19920;-67
2022/07/13 07:11:26;;;;;;;;;;;21.70;99.90;;;;;;5106433;28;19920;-67
2022/07/13 07:13:53;;;;;;;;;;;21.80;99.90;;;;;;5102235;28;19920;-68
2022/07/13 07:16:20;;;;;;;;;;;21.90;99.90;;;;;;5104391;28;19920;-68
2022/07/13 07:18:46;;;;;;;;;;;22.00;99.90;;;;;;5100623;28;19987;-67
2022/07/13 07:21:14;;;;;;;;;;;22.10;99.90;;;;;;5106049;28;19927;-67
2022/07/13 07:23:41;;;;;;;;;;;22.20;99.90;;;;;;5101667;28;19979;-67
2022/07/13 07:26:08;;;;;;;;;;;22.30;99.90;;;;;;5096928;28;19923;-67
2022/07/13 07:28:36;;;;;;;;;;;22.40;99.90;;;;;;5106237;28;19983;-68
2022/07/13 07:31:03;;;;;;;;;;;22.40;99.90;;;;;;5105689;28;20053;-67
2022/07/13 07:33:29;;;;;;;;;;;22.50;99.90;;;;;;5105333;28;19935;-68
2022/07/13 07:35:56;;;;;;;;;;;22.60;99.90;;;;;;5089762;28;19920;-68
2022/07/13 07:38:24;;;;;;;;;;;22.70;99.90;;;;;;5085479;28;19920;-68
2022/07/13 07:40:51;;;;;;;;;;;22.70;99.90;;;;;;5098072;28;19959;-68
2022/07/13 07:43:17;;;;;;;;;;;22.90;99.90;;;;;;5104952;28;19926;-68
2022/07/13 07:45:44;;;;;;;;;;;22.90;99.90;;;;;;5105294;28;20153;-68
2022/07/13 07:48:11;;;;;;;;;;;23.00;99.90;;;;;;5105089;28;19989;-68
2022/07/13 07:50:37;;;;;;;;;;;23.10;99.90;;;;;;5095924;28;19921;-68
2022/07/13 07:53:04;;;;;;;;;;;23.10;99.90;;;;;;5097166;28;19955;-68
2022/07/13 07:55:32;;;;;;;;;;;23.20;99.90;;;;;;5098602;28;19927;-68
2022/07/13 07:57:59;;;;;;;;;;;23.30;99.90;;;;;;5099319;28;19979;-68
2022/07/13 08:00:26;;;;;;;;;;;23.40;99.90;;;;;;5099152;28;19951;-68
2022/07/13 08:02:53;;;;;;;;;;;23.40;99.90;;;;;;5098785;28;20220;-68
2022/07/13 08:05:19;;;;;;;;;;;23.50;99.90;;;;;;5084930;28;20212;-68
2022/07/13 08:07:48;;;;;;;;;;;23.50;99.90;;;;;;5102008;28;19924;-68
2022/07/13 08:10:15;;;;;;;;;;;23.60;99.90;;;;;;5103641;28;19924;-67
2022/07/13 08:12:43;;;;;;;;;;;23.60;99.90;;;;;;5085311;28;19920;-68
2022/07/13 08:15:10;;;;;;;;;;;23.70;99.90;;;;;;5085089;28;19963;-68
2022/07/13 08:17:37;;;;;;;;;;;23.80;99.90;;;;;;5102849;28;19926;-68
2022/07/13 08:20:04;;;;;;;;;;;23.90;99.90;;;;;;5097239;28;19958;-68
2022/07/13 08:22:30;;;;;;;;;;;24.00;99.90;;;;;;5095923;28;19966;-68
2022/07/13 08:24:57;;;;;;;;;;;24.10;99.90;;;;;;5101333;28;20251;-69
2022/07/13 08:27:24;;;;;;;;;;;24.10;99.90;;;;;;5096481;28;19958;-68
2022/07/13 08:29:51;;;;;;;;;;;24.20;99.90;;;;;;5091553;28;20258;-68
2022/07/13 08:32:18;;;;;;;;;;;24.30;99.90;;;;;;5094221;28;19926;-68
2022/07/13 08:40:13;;;;;;;;;;;24.60;99.90;;;;;;5101380;28;19961;-68
2022/07/13 08:42:40;;;;;;;;;;;24.70;99.90;;;;;;5104469;28;19927;-68
2022/07/13 08:45:09;;;;;;;;;;;24.80;99.90;;;;;;5102565;28;19983;-68
2022/07/13 08:47:36;;;;;;;;;;;24.80;99.90;;;;;;5095693;28;19924;-68
2022/07/13 08:50:04;;;;;;;;;;;24.80;99.90;;;;;;5095644;28;19920;-68
2022/07/13 08:52:31;;;;;;;;;;;24.80;99.90;;;;;;5098610;28;19919;-68
2022/07/13 08:54:59;;;;;;;;;;;24.80;99.90;;;;;;5104532;28;20057;-68
2022/07/13 08:57:25;;;;;;;;;;;24.80;99.90;;;;;;5103778;28;19927;-68
2022/07/13 08:59:52;;;;;;;;;;;24.90;99.90;;;;;;5104460;28;19987;-68
2022/07/13 09:02:20;;;;;;;;;;;25.00;99.90;;;;;;5099046;28;19921;-68
2022/07/13 09:04:47;;;;;;;;;;;25.10;99.90;;;;;;5095500;28;19958;-68
2022/07/13 09:07:14;;;;;;;;;;;25.10;99.90;;;;;;5103544;28;19938;-67
2022/07/13 09:09:40;;;;;;;;;;;25.20;99.90;;;;;;5103802;28;19920;-68
2022/07/13 09:12:11;;;;;;;;;;;25.30;99.90;;;;;;5100019;28;19951;-68
2022/07/13 09:14:38;;;;;;;;;;;25.30;99.90;;;;;;5094863;28;19986;-68
2022/07/13 09:17:04;;;;;;;;;;;25.40;99.90;;;;;;5097998;28;20181;-68
2022/07/13 09:19:36;;;;;;;;;;;25.50;99.90;;;;;;5093455;28;19920;-67
2022/07/13 09:22:08;;;;;;;;;;;25.60;99.90;;;;;;5104102;28;20178;-67
2022/07/13 09:24:42;;;;;;;;;;;25.70;99.90;;;;;;5104182;28;19962;-67
2022/07/13 09:27:09;;;;;;;;;;;25.80;99.90;;;;;;5097049;28;19979;-68
2022/07/13 09:29:43;;;;;;;;;;;26.00;99.60;;;;;;5103806;28;19965;-68
2022/07/13 09:32:11;;;;;;;;;;;26.10;99.90;;;;;;5103111;28;19924;-67
2022/07/13 09:34:46;;;;;;;;;;;26.20;98.30;;;;;;5099827;28;19929;-68
2022/07/13 09:37:13;;;;;;;;;;;26.30;97.80;;;;;;5096123;28;19968;-68
2022/07/13 09:40:05;;;;;;;;;;;26.40;97.10;;;;;;5091729;28;20391;-67
2022/07/13 09:42:33;;;;;;;;;;;26.50;97.00;;;;;;5101688;28;19920;-68
2022/07/13 09:47:48;;;;;;;;;;;26.90;96.00;;;;;;5087322;28;20158;-68
2022/07/13 09:52:56;;;;;;;;;;;27.20;93.80;;;;;;5085995;28;19979;-68
2022/07/13 09:55:24;;;;;;;;;;;27.30;93.50;;;;;;5103281;28;19942;-68
2022/07/13 10:04:35;;;;;;;;;;;27.50;94.30;;;;;;4973631;28;19941;-68
2022/07/13 10:07:03;;;;;;;;;;;27.60;93.10;;;;;;4974242;28;19954;-68
2022/07/13 10:19:03;;;;;;;;;;;27.80;91.60;;;;;;4916313;28;19919;-67
2022/07/13 10:21:34;;;;;;;;;;;27.80;92.10;;;;;;5090596;28;19927;-68
2022/07/13 10:24:02;;;;;;;;;;;27.80;91.00;;;;;;5098168;28;19924;-68
2022/07/13 10:29:15;;;;;;;;;;;27.90;90.80;;;;;;5047909;28;19920;-67
2022/07/13 10:31:43;;;;;;;;;;;28.10;89.70;;;;;;5086117;28;19924;-67
2022/07/13 10:37:43;;;;;;;;;;;28.40;89.80;;;;;;5094658;28;19950;-67
2022/07/13 10:40:12;;;;;;;;;;;28.50;87.30;;;;;;5056501;28;19921;-66
2022/07/13 10:48:44;;;;;;;;;;;28.90;85.10;;;;;;4982383;28;19958;-68
2022/07/13 10:51:21;;;;;;;;;;;29.10;79.70;;;;;;5087792;28;19920;-67
2022/07/13 10:54:08;;;;;;;;;;;29.30;80.10;;;;;;5106533;28;19952;-67
2022/07/13 10:56:37;;;;;;;;;;;29.50;78.80;;;;;;5106687;28;19920;-68
2022/07/13 10:59:06;;;;;;;;;;;29.60;79.50;;;;;;5105187;28;19920;-66
2022/07/13 11:01:42;;;;;;;;;;;29.50;77.50;;;;;;5106633;28;19949;-67
2022/07/13 11:04:09;;;;;;;;;;;29.50;77.80;;;;;;5090379;28;20261;-67
2022/07/13 11:06:36;;;;;;;;;;;29.50;78.90;;;;;;5094536;28;19973;-67
2022/07/13 11:09:18;;;;;;;;;;;29.40;80.20;;;;;;5106917;28;20123;-67
2022/07/13 11:11:47;;;;;;;;;;;29.50;81.10;;;;;;5106365;28;19983;-67
2022/07/13 11:14:32;;;;;;;;;;;29.60;80.80;;;;;;5106302;28;19991;-67
2022/07/13 11:17:10;;;;;;;;;;;29.60;80.80;;;;;;5104571;28;19963;-67
2022/07/13 11:19:48;;;;;;;;;;;29.70;78.60;;;;;;5093450;28;20119;-68
2022/07/13 11:22:16;;;;;;;;;;;29.80;78.50;;;;;;5106455;28;19920;-67
2022/07/13 11:27:37;;;;;;;;;;;29.80;78.20;;;;;;5106133;28;19954;-67
2022/07/13 11:30:05;;;;;;;;;;;29.80;77.50;;;;;;5106356;28;19962;-67
2022/07/13 11:32:31;;;;;;;;;;;29.80;76.50;;;;;;5115224;22;19974;-68
2022/07/13 11:34:58;;;;;;;;;;;29.70;76.20;;;;;;5126345;28;19970;-68
2022/07/13 11:37:25;;;;;;;;;;;29.70;77.10;;;;;;5126739;27;19965;-68
2022/07/13 11:39:52;;;;;;;;;;;29.80;77.60;;;;;;5126347;28;20141;-67
2022/07/13 11:42:22;;;;;;;;;;;29.80;77.40;;;;;;5126434;28;19951;-67
2022/07/13 11:44:51;;;;;;;;;;;29.90;75.40;;;;;;5126665;28;20119;-67
2022/07/13 11:47:17;;;;;;;;;;;29.90;76.50;;;;;;5126420;28;19955;-67
2022/07/13 11:49:45;;;;;;;;;;;29.90;76.20;;;;;;5126006;28;20461;-67
2022/07/13 11:52:18;;;;;;;;;;;29.90;73.80;;;;;;5126109;28;19920;-68
2022/07/13 11:54:54;;;;;;;;;;;29.90;73.00;;;;;;5126048;28;19955;-67
2022/07/13 11:57:21;;;;;;;;;;;30.00;72.10;;;;;;5133165;27;19998;-68
2022/07/13 11:59:47;;;;;;;;;;;30.10;71.30;;;;;;5147027;27;19920;-67
2022/07/13 12:02:15;;;;;;;;;;;30.00;69.70;;;;;;5140844;27;19926;-68
2022/07/13 12:04:42;;;;;;;;;;;30.10;70.40;;;;;;5125727;28;19951;-68
2022/07/13 12:07:10;;;;;;;;;;;30.10;70.30;;;;;;5117657;28;19947;-68
2022/07/13 12:09:36;;;;;;;;;;;30.30;69.70;;;;;;5118384;28;20092;-67
2022/07/13 12:12:03;;;;;;;;;;;30.40;70.00;;;;;;5125696;28;19919;-68
2022/07/13 12:14:34;;;;;;;;;;;30.60;70.60;;;;;;5124772;28;19955;-68
2022/07/13 12:17:01;;;;;;;;;;;30.70;70.40;;;;;;5119796;28;20278;-68
2022/07/13 12:19:29;;;;;;;;;;;31.10;67.80;;;;;;5110521;28;19920;-70
2022/07/13 12:21:59;;;;;;;;;;;31.20;68.50;;;;;;5104748;28;19920;-67
2022/07/13 12:24:26;;;;;;;;;;;31.30;67.90;;;;;;5105228;28;19924;-68
2022/07/13 12:26:53;;;;;;;;;;;31.40;67.20;;;;;;5105080;28;19983;-69
2022/07/13 12:29:29;;;;;;;;;;;31.70;68.00;;;;;;5105062;28;20223;-68
2022/07/13 12:31:55;;;;;;;;;;;31.90;68.10;;;;;;5116803;27;19927;-68
2022/07/13 12:34:22;;;;;;;;;;;32.10;68.30;;;;;;5125527;28;19955;-68
2022/07/13 12:36:50;;;;;;;;;;;32.10;68.80;;;;;;5125532;28;19987;-68
2022/07/13 12:39:19;;;;;;;;;;;32.20;68.20;;;;;;5125564;28;20165;-68
2022/07/13 12:41:55;;;;;;;;;;;32.10;66.90;;;;;;5125154;28;19931;-68
2022/07/13 12:44:27;;;;;;;;;;;32.10;66.60;;;;;;5124917;28;19961;-68
2022/07/13 12:46:55;;;;;;;;;;;31.90;63.80;;;;;;5125094;28;19986;-68
2022/07/13 12:49:26;;;;;;;;;;;31.60;63.00;;;;;;5125344;28;19943;-68
2022/07/13 12:51:54;;;;;;;;;;;31.50;64.40;;;;;;5125360;28;19959;-68
2022/07/13 12:54:36;;;;;;;;;;;31.30;62.80;;;;;;5104723;28;19960;-68
2022/07/13 12:57:08;;;;;;;;;;;31.30;64.30;;;;;;5104018;28;19963;-68
2022/07/13 12:59:34;;;;;;;;;;;31.10;64.30;;;;;;5104927;28;19962;-68
2022/07/13 13:02:02;;;;;;;;;;;30.90;63.90;;;;;;5104304;28;19927;-68
2022/07/13 13:04:29;;;;;;;;;;;30.90;64.90;;;;;;5104206;28;19920;-68
2022/07/13 13:07:00;;;;;;;;;;;30.90;65.70;;;;;;5104124;28;19952;-68
2022/07/13 13:09:31;;;;;;;;;;;31.00;67.20;;;;;;5106989;28;19920;-68
2022/07/13 13:12:00;;;;;;;;;;;31.00;66.20;;;;;;5124540;28;19920;-68
2022/07/13 13:14:27;;;;;;;;;;;31.10;65.60;;;;;;5124471;28;19919;-68
2022/07/13 13:16:53;;;;;;;;;;;31.30;66.20;;;;;;5124480;28;20119;-68
2022/07/13 13:19:20;;;;;;;;;;;31.40;66.20;;;;;;5124775;28;19951;-68
2022/07/13 13:21:47;;;;;;;;;;;31.40;64.00;;;;;;5124472;28;19987;-68
2022/07/13 13:24:15;;;;;;;;;;;31.50;65.10;;;;;;5124384;28;19958;-68
2022/07/13 13:26:44;;;;;;;;;;;31.30;64.80;;;;;;5124846;28;19966;-68
2022/07/13 13:31:55;;;;;;;;;;;31.30;65.20;;;;;;5124199;28;20145;-68
2022/07/13 13:34:22;;;;;;;;;;;31.30;64.70;;;;;;5124415;28;19927;-68
2022/07/13 13:36:49;;;;;;;;;;;31.30;65.00;;;;;;5124184;28;20273;-68
2022/07/13 13:39:17;;;;;;;;;;;31.30;64.60;;;;;;5123763;28;19923;-68
2022/07/13 13:41:44;;;;;;;;;;;31.40;64.10;;;;;;5123682;28;19959;-68
2022/07/13 13:44:11;;;;;;;;;;;31.50;63.00;;;;;;5123690;28;19927;-68
2022/07/13 13:46:38;;;;;;;;;;;31.50;64.80;;;;;;5123870;28;19948;-68
2022/07/13 13:49:05;;;;;;;;;;;31.60;63.20;;;;;;5124084;28;19926;-68
2022/07/13 13:51:32;;;;;;;;;;;31.70;62.80;;;;;;5123829;28;19986;-68
2022/07/13 13:53:59;;;;;;;;;;;31.80;62.30;;;;;;5123915;28;19927;-68
2022/07/13 13:56:27;;;;;;;;;;;31.90;61.60;;;;;;5120815;28;19958;-68
2022/07/13 13:58:53;;;;;;;;;;;31.90;61.40;;;;;;5123795;28;19951;-68
2022/07/13 14:01:20;;;;;;;;;;;31.80;61.80;;;;;;5123846;28;19958;-68
2022/07/13 14:03:47;;;;;;;;;;;31.70;60.30;;;;;;5116086;28;21019;-68
2022/07/13 14:06:14;;;;;;;;;;;31.60;62.60;;;;;;5111385;28;19955;-68
2022/07/13 14:08:43;;;;;;;;;;;31.60;60.90;;;;;;5103589;28;19927;-68
2022/07/13 14:11:09;;;;;;;;;;;31.60;60.40;;;;;;5112587;28;19981;-68
2022/07/13 14:13:38;;;;;;;;;;;31.60;61.20;;;;;;5123094;28;19970;-67
2022/07/13 14:16:06;;;;;;;;;;;31.60;60.50;;;;;;5120760;28;19920;-68
2022/07/13 14:18:32;;;;;;;;;;;31.70;59.50;;;;;;5123716;28;19980;-69
2022/07/13 14:20:59;;;;;;;;;;;31.80;59.60;;;;;;5119755;28;19962;-70
2022/07/13 14:23:26;;;;;;;;;;;31.70;60.40;;;;;;5122951;28;19919;-68
2022/07/13 14:25:53;;;;;;;;;;;31.70;60.30;;;;;;5109792;28;19919;-68
2022/07/13 14:28:20;;;;;;;;;;;31.70;58.90;;;;;;5123780;28;19919;-68
2022/07/13 14:30:48;;;;;;;;;;;31.60;58.90;;;;;;5123487;28;19955;-68
2022/07/13 14:33:15;;;;;;;;;;;31.50;59.10;;;;;;5123290;28;19979;-68
2022/07/13 14:35:42;;;;;;;;;;;31.40;58.60;;;;;;5123106;28;19983;-68
2022/07/13 14:38:10;;;;;;;;;;;31.30;58.50;;;;;;5122829;28;20157;-68
2022/07/13 14:40:37;;;;;;;;;;;31.20;58.60;;;;;;5102848;28;19927;-68
2022/07/13 14:43:04;;;;;;;;;;;31.10;58.30;;;;;;5103161;28;19988;-69
2022/07/13 14:45:31;;;;;;;;;;;31.00;58.20;;;;;;5103360;28;20111;-67
2022/07/13 14:47:59;;;;;;;;;;;30.90;58.40;;;;;;5118247;28;20287;-68
2022/07/13 14:50:25;;;;;;;;;;;30.90;57.90;;;;;;5123168;28;20178;-67
2022/07/13 14:52:52;;;;;;;;;;;30.90;57.90;;;;;;5123073;28;19957;-67
2022/07/13 14:55:19;;;;;;;;;;;30.90;58.20;;;;;;5123751;28;19995;-68
2022/07/13 14:57:45;;;;;;;;;;;30.90;58.80;;;;;;5123623;28;19963;-68
2022/07/13 15:00:13;;;;;;;;;;;31.00;57.90;;;;;;5123318;28;20253;-68
2022/07/13 15:02:39;;;;;;;;;;;31.00;58.60;;;;;;5118282;28;19926;-68
2022/07/13 15:05:11;;;;;;;;;;;31.00;59.30;;;;;;5123278;28;19962;-68
2022/07/13 15:07:38;;;;;;;;;;;31.10;59.10;;;;;;5115101;27;19919;-69
2022/07/13 15:10:05;;;;;;;;;;;31.20;58.70;;;;;;5127149;28;19959;-68
2022/07/13 15:12:32;;;;;;;;;;;31.40;57.30;;;;;;5126968;28;19962;-68